createdAt,value
2017-03-16T00:00:54.231Z,4.44
2017-03-16T00:01:54.255Z,4.53
2017-03-16T00:02:54.280Z,4.56
2017-03-16T00:03:54.311Z,4.54
2017-03-16T00:04:54.336Z,4.5
2017-03-16T00:05:54.400Z,4.47
2017-03-16T00:06:54.390Z,4.46
2017-03-16T00:07:54.416Z,4.35
2017-03-16T00:08:54.450Z,4.47
2017-03-16T00:09:54.477Z,4.46
2017-03-16T00:10:54.500Z,4.46
2017-03-16T00:11:54.531Z,4.33
2017-03-16T00:12:54.559Z,4.33
2017-03-16T00:13:55.092Z,4.36
2017-03-16T00:14:54.611Z,4.36
2017-03-16T00:15:54.647Z,4.35
2017-03-16T00:16:54.674Z,4.33
2017-03-16T00:17:54.699Z,4.28
2017-03-16T00:18:54.721Z,4.28
2017-03-16T00:19:54.751Z,4.28
2017-03-16T00:20:54.781Z,4.22
2017-03-16T00:21:54.801Z,4.28
2017-03-16T00:22:54.833Z,4.26
2017-03-16T00:23:54.871Z,4.26
2017-03-16T00:24:54.891Z,4.3
2017-03-16T00:25:54.912Z,4.33
2017-03-16T00:26:54.954Z,4.22
2017-03-16T00:27:54.972Z,4.2
2017-03-16T00:28:55.001Z,4.12
2017-03-16T00:29:55.032Z,4.11
2017-03-16T00:30:55.083Z,4.18
2017-03-16T00:31:55.083Z,4.2
2017-03-16T00:32:55.144Z,4.18
2017-03-16T00:33:55.130Z,4.18
2017-03-16T00:34:55.187Z,4.21
2017-03-16T00:35:55.181Z,4.11
2017-03-16T00:36:55.217Z,4.12
2017-03-16T00:37:55.253Z,4.1
2017-03-16T00:38:55.272Z,4.04
2017-03-16T00:39:55.296Z,3.99
2017-03-16T00:40:55.335Z,3.99
2017-03-16T00:41:55.370Z,3.99
2017-03-16T00:42:55.379Z,3.93
2017-03-16T00:43:55.406Z,3.96
2017-03-16T00:44:55.431Z,3.96
2017-03-16T00:45:55.473Z,4.14
2017-03-16T00:47:02.251Z,4.04
2017-03-16T00:47:55.526Z,4.15
2017-03-16T00:48:55.756Z,4.1
2017-03-16T00:49:55.585Z,4.02
2017-03-16T00:50:55.608Z,4.03
2017-03-16T00:51:55.830Z,4.02
2017-03-16T00:52:55.664Z,4.04
2017-03-16T00:53:55.815Z,3.94
2017-03-16T00:54:55.699Z,3.94
2017-03-16T00:55:55.736Z,3.93
2017-03-16T00:56:55.761Z,3.96
2017-03-16T00:57:55.785Z,3.99
2017-03-16T00:58:55.823Z,4.04
2017-03-16T00:59:55.840Z,4.15
2017-03-16T01:00:55.914Z,4.1
2017-03-16T01:01:55.916Z,4.1
2017-03-16T01:02:55.951Z,4.12
2017-03-16T01:03:55.956Z,4.14
2017-03-16T01:04:55.980Z,4.08
2017-03-16T01:05:56.002Z,3.9
2017-03-16T01:06:56.031Z,4.04
2017-03-16T01:07:56.062Z,3.9
2017-03-16T01:08:56.082Z,3.89
2017-03-16T01:09:56.119Z,3.94
2017-03-16T01:10:56.144Z,3.93
2017-03-16T01:11:56.185Z,3.94
2017-03-16T01:12:56.192Z,3.97
2017-03-16T01:13:56.223Z,4.04
2017-03-16T01:14:56.253Z,4.03
2017-03-16T01:15:56.279Z,4.18
2017-03-16T01:16:56.342Z,4
2017-03-16T01:17:56.325Z,4.03
2017-03-16T01:18:56.353Z,4.12
2017-03-16T01:19:56.381Z,4.15
2017-03-16T01:20:56.413Z,4.14
2017-03-16T01:21:56.496Z,4.15
2017-03-16T01:22:56.461Z,4.18
2017-03-16T01:23:56.494Z,4.11
2017-03-16T01:24:56.528Z,4.17
2017-03-16T01:25:56.558Z,4.14
2017-03-16T01:26:56.571Z,4.1
2017-03-16T01:27:56.651Z,4
2017-03-16T01:28:56.650Z,4.1
2017-03-16T01:29:56.662Z,4.08
2017-03-16T01:30:56.690Z,4.04
2017-03-16T01:31:56.708Z,4.03
2017-03-16T01:32:56.733Z,4.03
2017-03-16T01:33:56.772Z,4.12
2017-03-16T01:34:56.803Z,4.11
2017-03-16T01:35:56.817Z,4.08
2017-03-16T01:36:56.842Z,4
2017-03-16T01:37:56.872Z,4.03
2017-03-16T01:38:56.894Z,4.02
2017-03-16T01:39:56.931Z,4.1
2017-03-16T01:40:56.961Z,4.04
2017-03-16T01:41:56.983Z,4.02
2017-03-16T01:42:57.003Z,3.96
2017-03-16T01:43:57.203Z,3.97
2017-03-16T01:44:57.052Z,4.02
2017-03-16T01:45:57.081Z,3.97
2017-03-16T01:46:57.110Z,3.96
2017-03-16T01:47:57.319Z,4.04
2017-03-16T01:48:57.342Z,4.04
2017-03-16T01:49:57.353Z,3.86
2017-03-16T01:50:57.369Z,3.92
2017-03-16T01:51:57.476Z,3.92
2017-03-16T01:52:57.431Z,3.93
2017-03-16T01:53:57.449Z,3.86
2017-03-16T01:54:57.482Z,3.93
2017-03-16T01:55:57.498Z,3.94
2017-03-16T01:56:57.530Z,3.94
2017-03-16T01:57:57.569Z,3.94
2017-03-16T01:58:57.606Z,3.97
2017-03-16T01:59:57.617Z,3.92
2017-03-16T02:00:57.649Z,3.94
2017-03-16T02:01:57.664Z,3.85
2017-03-16T02:02:57.687Z,3.92
2017-03-16T02:03:57.718Z,3.92
2017-03-16T02:04:57.765Z,3.89
2017-03-16T02:05:57.778Z,3.79
2017-03-16T02:06:57.798Z,3.85
2017-03-16T02:07:57.825Z,3.71
2017-03-16T02:08:57.848Z,3.76
2017-03-16T02:09:57.892Z,3.72
2017-03-16T02:10:57.904Z,3.72
2017-03-16T02:11:57.934Z,3.67
2017-03-16T02:12:57.976Z,3.74
2017-03-16T02:13:57.993Z,3.71
2017-03-16T02:14:58.013Z,3.71
2017-03-16T02:15:58.041Z,3.72
2017-03-16T02:16:58.064Z,3.67
2017-03-16T02:17:58.099Z,3.74
2017-03-16T02:18:58.123Z,3.72
2017-03-16T02:19:58.273Z,3.71
2017-03-16T02:20:58.174Z,3.71
2017-03-16T02:21:58.202Z,3.72
2017-03-16T02:22:58.224Z,3.75
2017-03-16T02:23:58.255Z,3.74
2017-03-16T02:24:58.274Z,3.71
2017-03-16T02:25:58.304Z,3.71
2017-03-16T02:26:58.335Z,3.63
2017-03-16T02:27:58.374Z,3.69
2017-03-16T02:28:58.380Z,3.66
2017-03-16T02:29:58.411Z,3.61
2017-03-16T02:30:58.454Z,3.63
2017-03-16T02:31:58.472Z,3.64
2017-03-16T02:32:58.494Z,3.66
2017-03-16T02:33:58.524Z,3.64
2017-03-16T02:34:58.543Z,3.64
2017-03-16T02:35:58.732Z,3.64
2017-03-16T02:36:58.599Z,3.67
2017-03-16T02:37:58.774Z,3.66
2017-03-16T02:38:58.657Z,3.74
2017-03-16T02:39:58.707Z,3.71
2017-03-16T02:40:58.954Z,3.78
2017-03-16T02:41:58.733Z,3.78
2017-03-16T02:42:58.826Z,3.85
2017-03-16T02:43:58.832Z,3.84
2017-03-16T02:44:58.815Z,3.85
2017-03-16T02:45:58.873Z,3.85
2017-03-16T02:46:58.867Z,3.92
2017-03-16T02:47:58.891Z,3.9
2017-03-16T02:48:58.921Z,3.96
2017-03-16T02:49:58.943Z,3.94
2017-03-16T02:51:41.359Z,4.02
2017-03-16T02:52:21.321Z,4.04
2017-03-16T02:53:21.360Z,4.17
2017-03-16T02:54:21.895Z,4.18
2017-03-16T02:55:21.907Z,4.28
2017-03-16T02:56:22.453Z,4.32
2017-03-16T02:57:22.464Z,4.36
2017-03-16T02:58:22.477Z,4.44
2017-03-16T02:59:22.970Z,4.53
2017-03-16T03:00:23.061Z,4.53
2017-03-16T03:01:23.245Z,4.6
2017-03-16T03:02:23.079Z,4.64
2017-03-16T03:03:23.106Z,4.61
2017-03-16T03:04:23.107Z,4.65
2017-03-16T03:05:23.140Z,4.76
2017-03-16T03:06:23.627Z,4.74
2017-03-16T03:07:24.209Z,4.76
2017-03-16T03:08:24.189Z,4.78
2017-03-16T03:09:24.732Z,4.74
2017-03-16T03:10:24.730Z,4.74
2017-03-16T03:11:25.279Z,4.78
2017-03-16T03:12:25.295Z,4.74
2017-03-16T03:13:25.318Z,4.74
2017-03-16T03:14:25.882Z,4.75
2017-03-16T03:15:25.873Z,4.72
2017-03-16T03:16:26.393Z,4.65
2017-03-16T03:17:26.391Z,4.58
2017-03-16T03:18:26.892Z,4.48
2017-03-16T03:19:26.931Z,4.46
2017-03-16T03:20:26.932Z,4.33
2017-03-16T03:21:26.962Z,4.32
2017-03-16T03:22:26.985Z,4.21
2017-03-16T03:23:27.508Z,4.17
2017-03-16T03:24:27.531Z,4.1
2017-03-16T03:25:28.088Z,4.15
2017-03-16T03:26:28.081Z,4.1
2017-03-16T03:27:28.161Z,4.17
2017-03-16T03:28:28.137Z,4.12
2017-03-16T03:29:28.183Z,4.11
2017-03-16T03:30:28.170Z,4.03
2017-03-16T03:31:28.727Z,4.1
2017-03-16T03:32:29.233Z,3.99
2017-03-16T03:33:29.280Z,4.15
2017-03-16T03:34:29.284Z,4.11
2017-03-16T03:35:29.340Z,4.03
2017-03-16T03:36:29.391Z,3.99
2017-03-16T03:37:29.358Z,3.92
2017-03-16T03:38:29.389Z,3.94
2017-03-16T03:39:29.927Z,3.96
2017-03-16T03:40:30.440Z,3.94
2017-03-16T03:41:30.531Z,4.08
2017-03-16T03:42:30.492Z,3.96
2017-03-16T03:43:31.047Z,3.93
2017-03-16T03:44:31.041Z,3.9
2017-03-16T03:45:31.095Z,3.94
2017-03-16T03:46:31.104Z,3.92
2017-03-16T03:47:31.644Z,3.92
2017-03-16T03:48:31.626Z,3.89
2017-03-16T03:49:32.136Z,3.89
2017-03-16T03:50:32.159Z,3.92
2017-03-16T03:51:32.236Z,3.92
2017-03-16T03:52:32.194Z,3.81
2017-03-16T03:53:32.247Z,3.81
2017-03-16T03:54:32.235Z,3.81
2017-03-16T03:55:32.792Z,3.86
2017-03-16T03:56:33.281Z,3.81
2017-03-16T03:57:33.298Z,3.81
2017-03-16T03:58:33.836Z,3.81
2017-03-16T03:59:33.858Z,3.84
2017-03-16T04:00:33.889Z,3.9
2017-03-16T04:01:33.935Z,3.79
2017-03-16T04:02:33.900Z,3.81
2017-03-16T04:03:34.441Z,3.76
2017-03-16T04:04:34.467Z,3.72
2017-03-16T04:05:34.471Z,3.78
2017-03-16T04:06:35.010Z,3.64
2017-03-16T04:07:35.521Z,3.67
2017-03-16T04:08:36.051Z,3.6
2017-03-16T04:09:36.065Z,3.61
2017-03-16T04:10:36.551Z,3.53
2017-03-16T04:11:36.806Z,3.56
2017-03-16T04:12:36.670Z,3.48
2017-03-16T04:13:36.641Z,3.53
2017-03-16T04:14:36.649Z,3.53
2017-03-16T04:15:36.710Z,3.53
2017-03-16T04:16:36.742Z,3.57
2017-03-16T04:17:36.750Z,3.63
2017-03-16T04:18:36.751Z,3.66
2017-03-16T04:19:36.794Z,3.74
2017-03-16T04:20:36.852Z,3.74
2017-03-16T04:21:36.871Z,3.69
2017-03-16T04:22:36.878Z,3.85
2017-03-16T04:23:37.401Z,3.81
2017-03-16T04:24:37.397Z,3.71
2017-03-16T04:25:37.924Z,3.81
2017-03-16T04:26:37.948Z,3.72
2017-03-16T04:27:37.933Z,3.64
2017-03-16T04:28:38.465Z,3.61
2017-03-16T04:29:38.479Z,3.58
2017-03-16T04:30:38.476Z,3.63
2017-03-16T04:31:38.499Z,3.56
2017-03-16T04:32:38.523Z,3.56
2017-03-16T04:33:39.050Z,3.53
2017-03-16T04:34:39.109Z,3.49
2017-03-16T04:35:39.171Z,3.49
2017-03-16T04:36:39.136Z,3.42
2017-03-16T04:37:39.154Z,3.46
2017-03-16T04:38:39.726Z,3.46
2017-03-16T04:39:40.270Z,3.45
2017-03-16T04:40:40.273Z,3.39
2017-03-16T04:41:40.355Z,3.46
2017-03-16T04:42:40.353Z,3.45
2017-03-16T04:43:40.347Z,3.4
2017-03-16T04:44:40.397Z,3.46
2017-03-16T04:45:40.897Z,3.4
2017-03-16T04:46:41.450Z,3.39
2017-03-16T04:47:41.468Z,3.35
2017-03-16T04:48:41.991Z,3.35
2017-03-16T04:49:42.013Z,3.24
2017-03-16T04:50:42.068Z,3.27
2017-03-16T04:51:42.061Z,3.29
2017-03-16T04:52:42.088Z,3.24
2017-03-16T04:53:42.070Z,3.19
2017-03-16T04:54:42.143Z,3.2
2017-03-16T04:55:42.141Z,3.21
2017-03-16T04:56:42.692Z,3.09
2017-03-16T04:57:42.724Z,3.13
2017-03-16T04:58:42.725Z,3.09
2017-03-16T04:59:42.755Z,3.13
2017-03-16T05:00:42.772Z,3.03
2017-03-16T05:01:43.371Z,3.06
2017-03-16T05:02:43.317Z,3.11
2017-03-16T05:03:43.361Z,2.96
2017-03-16T05:04:43.349Z,2.99
2017-03-16T05:05:43.919Z,3.01
2017-03-16T05:06:43.940Z,3.06
2017-03-16T05:07:43.941Z,3.01
2017-03-16T05:08:43.959Z,2.95
2017-03-16T05:09:43.980Z,2.96
2017-03-16T05:10:44.012Z,3.03
2017-03-16T05:11:44.568Z,2.91
2017-03-16T05:12:44.552Z,2.99
2017-03-16T05:13:44.612Z,2.98
2017-03-16T05:14:44.611Z,2.95
2017-03-16T05:15:44.629Z,3.05
2017-03-16T05:16:45.150Z,3.01
2017-03-16T05:17:45.192Z,3.06
2017-03-16T05:18:45.193Z,2.93
2017-03-16T05:19:45.224Z,3.05
2017-03-16T05:20:45.253Z,3.03
2017-03-16T05:21:45.265Z,3.13
2017-03-16T05:22:45.811Z,3.2
2017-03-16T05:23:45.836Z,3.19
2017-03-16T05:24:45.835Z,3.23
2017-03-16T05:25:45.865Z,3.13
2017-03-16T05:26:46.442Z,3.19
2017-03-16T05:27:46.424Z,3.19
2017-03-16T05:28:46.451Z,3.16
2017-03-16T05:29:46.465Z,3.14
2017-03-16T05:30:46.499Z,3.19
2017-03-16T05:31:47.024Z,3.27
2017-03-16T05:32:47.569Z,3.27
2017-03-16T05:33:47.585Z,3.29
2017-03-16T05:34:47.664Z,3.24
2017-03-16T05:35:47.625Z,3.29
2017-03-16T05:36:47.676Z,3.24
2017-03-16T05:37:47.688Z,3.37
2017-03-16T05:38:48.227Z,3.21
2017-03-16T05:39:48.236Z,3.29
2017-03-16T05:40:48.782Z,3.3
2017-03-16T05:41:48.767Z,3.34
2017-03-16T05:42:49.308Z,3.35
2017-03-16T05:43:49.338Z,3.4
2017-03-16T05:44:49.325Z,3.49
2017-03-16T05:45:49.367Z,3.51
2017-03-16T05:46:49.934Z,3.51
2017-03-16T05:47:49.944Z,3.53
2017-03-16T05:48:49.937Z,3.58
2017-03-16T05:49:50.488Z,3.61
2017-03-16T05:50:50.476Z,3.75
2017-03-16T05:51:51.036Z,3.72
2017-03-16T05:52:51.023Z,3.69
2017-03-16T05:53:51.050Z,3.82
2017-03-16T05:54:51.108Z,3.75
2017-03-16T05:55:51.142Z,3.76
2017-03-16T05:56:51.136Z,3.72
2017-03-16T05:57:51.158Z,3.75
2017-03-16T05:58:51.736Z,3.72
2017-03-16T05:59:52.411Z,3.75
2017-03-16T06:00:52.433Z,3.72
2017-03-16T06:01:52.422Z,3.82
2017-03-16T06:02:52.433Z,3.75
2017-03-16T06:03:52.481Z,3.86
2017-03-16T06:04:52.517Z,3.89
2017-03-16T06:05:52.532Z,3.94
2017-03-16T06:06:52.563Z,3.94
2017-03-16T06:07:52.587Z,3.89
2017-03-16T06:08:52.640Z,3.94
2017-03-16T06:09:52.630Z,3.93
2017-03-16T06:10:52.669Z,3.93
2017-03-16T06:11:52.676Z,3.92
2017-03-16T06:12:53.226Z,4.1
2017-03-16T06:13:53.242Z,3.99
2017-03-16T06:14:53.219Z,4.07
2017-03-16T06:15:53.275Z,4.15
2017-03-16T06:16:53.842Z,4.21
2017-03-16T06:17:53.824Z,4.3
2017-03-16T06:18:53.865Z,4.3
2017-03-16T06:19:53.906Z,4.38
2017-03-16T06:20:53.937Z,4.46
2017-03-16T06:21:53.937Z,4.47
2017-03-16T06:22:54.123Z,4.54
2017-03-16T06:23:54.038Z,4.51
2017-03-16T06:24:54.015Z,4.53
2017-03-16T06:25:54.603Z,4.66
2017-03-16T06:26:54.627Z,4.61
2017-03-16T06:27:54.629Z,4.64
2017-03-16T06:28:54.648Z,4.69
2017-03-16T06:29:54.686Z,4.74
2017-03-16T06:30:54.746Z,4.84
2017-03-16T06:31:55.266Z,4.88
2017-03-16T06:32:55.294Z,4.91
2017-03-16T06:33:55.341Z,5.03
2017-03-16T06:34:55.336Z,5.06
2017-03-16T06:35:55.371Z,5.24
2017-03-16T06:36:55.424Z,5.37
2017-03-16T06:37:55.450Z,5.45
2017-03-16T06:38:55.447Z,5.55
2017-03-16T06:39:55.489Z,5.63
2017-03-16T06:40:55.496Z,5.87
2017-03-16T06:41:55.556Z,6.07
2017-03-16T06:42:55.560Z,6.26
2017-03-16T06:43:55.575Z,6.47
2017-03-16T06:44:55.647Z,6.57
2017-03-16T06:45:55.632Z,6.6
2017-03-16T06:46:55.652Z,6.7
2017-03-16T06:47:55.698Z,6.95
2017-03-16T06:48:55.720Z,7.13
2017-03-16T06:49:55.725Z,7.12
2017-03-16T06:50:55.766Z,7.27
2017-03-16T06:51:55.787Z,7.27
2017-03-16T06:52:55.825Z,7.33
2017-03-16T06:53:55.860Z,7.33
2017-03-16T06:54:55.925Z,7.36
2017-03-16T06:55:56.022Z,7.33
2017-03-16T06:56:55.925Z,7.36
2017-03-16T06:57:55.964Z,7.4
2017-03-16T06:58:55.988Z,7.55
2017-03-16T06:59:56.050Z,7.73
2017-03-16T07:00:56.331Z,7.96
2017-03-16T07:01:56.078Z,8.1
2017-03-16T07:02:56.144Z,8.39
2017-03-16T07:03:56.136Z,8.83
2017-03-16T07:04:56.174Z,9.44
2017-03-16T07:05:56.195Z,9.96
2017-03-16T07:06:56.254Z,9.98
2017-03-16T07:07:56.233Z,9.96
2017-03-16T07:08:56.284Z,9.89
2017-03-16T07:09:56.347Z,9.89
2017-03-16T07:10:56.330Z,10.33
2017-03-16T07:11:56.372Z,10.85
2017-03-16T07:12:56.394Z,11.24
2017-03-16T07:13:56.449Z,11.12
2017-03-16T07:14:56.436Z,11.08
2017-03-16T07:15:56.497Z,10.84
2017-03-16T07:16:56.535Z,10.52
2017-03-16T07:17:56.547Z,10.36
2017-03-16T07:18:56.582Z,10.29
2017-03-16T07:19:56.597Z,10.52
2017-03-16T07:20:56.665Z,10.51
2017-03-16T07:21:56.698Z,10.57
2017-03-16T07:22:56.718Z,10.54
2017-03-16T07:23:56.735Z,10.97
2017-03-16T07:24:56.745Z,11.63
2017-03-16T07:25:56.778Z,12.33
2017-03-16T07:26:56.856Z,13.11
2017-03-16T07:27:56.865Z,13.76
2017-03-16T07:28:56.917Z,14.48
2017-03-16T07:29:57.020Z,15.12
2017-03-16T07:30:56.935Z,15.55
2017-03-16T07:31:56.950Z,15.99
2017-03-16T07:32:56.985Z,16.22
2017-03-16T07:33:57.048Z,16.66
2017-03-16T07:34:57.190Z,16.62
2017-03-16T07:35:57.333Z,16.47
2017-03-16T07:36:57.138Z,16.66
2017-03-16T07:37:57.148Z,16.7
2017-03-16T07:38:57.192Z,16.97
2017-03-16T07:39:57.545Z,17.43
2017-03-16T07:40:57.273Z,18.03
2017-03-16T07:41:57.286Z,18.47
2017-03-16T07:42:57.398Z,18.81
2017-03-16T07:43:57.339Z,19.15
2017-03-16T07:44:57.378Z,19.3
2017-03-16T07:45:57.449Z,19.43
2017-03-16T07:46:57.442Z,19.49
2017-03-16T07:47:57.507Z,19.5
2017-03-16T07:48:57.537Z,19.55
2017-03-16T07:49:57.558Z,19.5
2017-03-16T07:50:57.595Z,19.12
2017-03-16T07:51:57.646Z,18.63
2017-03-16T07:52:57.648Z,18.56
2017-03-16T07:53:57.752Z,18.51
2017-03-16T07:54:57.759Z,18.57
2017-03-16T07:55:57.750Z,18.1
2017-03-16T07:56:57.799Z,17.46
2017-03-16T07:57:57.863Z,16.72
2017-03-16T07:58:58.062Z,16.13
2017-03-16T07:59:57.905Z,15.59
2017-03-16T08:00:58.212Z,15.13
2017-03-16T08:01:57.960Z,14.85
2017-03-16T08:02:58.217Z,14.7
2017-03-16T08:03:58.051Z,14.71
2017-03-16T08:04:58.073Z,14.74
2017-03-16T08:05:58.166Z,14.74
2017-03-16T08:06:58.148Z,14.75
2017-03-16T08:07:58.172Z,14.67
2017-03-16T08:08:58.198Z,14.48
2017-03-16T08:09:58.254Z,14.36
2017-03-16T08:10:58.272Z,14.26
2017-03-16T08:11:58.379Z,14.03
2017-03-16T08:12:58.381Z,13.66
2017-03-16T08:13:58.361Z,13.51
2017-03-16T08:14:58.474Z,13.53
2017-03-16T08:15:58.469Z,13.53
2017-03-16T08:16:58.466Z,13.65
2017-03-16T08:17:58.525Z,13.94
2017-03-16T08:18:58.589Z,14.31
2017-03-16T08:19:58.580Z,14.64
2017-03-16T08:20:58.621Z,14.97
2017-03-16T08:21:58.652Z,15.4
2017-03-16T08:22:58.689Z,15.62
2017-03-16T08:23:58.720Z,15.7
2017-03-16T08:24:58.760Z,15.91
2017-03-16T08:25:58.777Z,16.06
2017-03-16T08:26:58.878Z,15.95
2017-03-16T08:27:58.875Z,15.98
2017-03-16T08:28:59.640Z,16.02
2017-03-16T08:29:59.818Z,16.17
2017-03-16T08:31:00.084Z,16.17
2017-03-16T08:31:59.580Z,16.32
2017-03-16T08:32:59.498Z,16.36
2017-03-16T08:33:59.092Z,16.22
2017-03-16T08:34:59.136Z,16.16
2017-03-16T08:35:59.165Z,16.17
2017-03-16T08:36:59.199Z,16.29
2017-03-16T08:37:59.202Z,16.26
2017-03-16T08:38:59.238Z,16.34
2017-03-16T08:39:59.290Z,16.57
2017-03-16T08:40:59.361Z,16.8
2017-03-16T08:41:59.336Z,17.2
2017-03-16T08:42:59.368Z,18.01
2017-03-16T08:43:59.443Z,18.75
2017-03-16T08:44:59.491Z,18.84
2017-03-16T08:45:59.475Z,18.96
2017-03-16T08:46:59.543Z,18.71
2017-03-16T08:47:59.570Z,18.47
2017-03-16T08:48:59.566Z,18.01
2017-03-16T08:49:59.678Z,17.81
2017-03-16T08:50:59.643Z,17.76
2017-03-16T08:51:59.677Z,17.52
2017-03-16T08:52:59.791Z,17.49
2017-03-16T08:53:59.753Z,17.3
2017-03-16T08:54:59.815Z,17.18
2017-03-16T08:55:59.826Z,16.91
2017-03-16T08:56:59.892Z,16.69
2017-03-16T08:57:59.897Z,16.25
2017-03-16T08:58:59.933Z,15.83
2017-03-16T09:00:00.010Z,15.6
2017-03-16T09:01:00.012Z,15.16
2017-03-16T09:02:00.064Z,14.86
2017-03-16T09:03:00.173Z,14.52
2017-03-16T09:04:00.152Z,14.44
2017-03-16T09:05:00.195Z,14.57
2017-03-16T09:06:00.245Z,14.79
2017-03-16T09:07:00.324Z,14.83
2017-03-16T09:08:00.315Z,15.07
2017-03-16T09:09:00.392Z,15.26
2017-03-16T09:10:00.366Z,15.58
2017-03-16T09:11:00.395Z,15.7
2017-03-16T09:12:00.442Z,15.88
2017-03-16T09:13:00.462Z,16.08
2017-03-16T09:14:00.513Z,16.26
2017-03-16T09:15:00.549Z,16.3
2017-03-16T09:16:00.604Z,16.33
2017-03-16T09:17:00.647Z,16.36
2017-03-16T09:18:00.628Z,16.26
2017-03-16T09:19:00.698Z,16.34
2017-03-16T09:20:00.701Z,16.36
2017-03-16T09:21:01.017Z,16.48
2017-03-16T09:22:00.775Z,16.9
2017-03-16T09:23:00.818Z,17.27
2017-03-16T09:24:00.820Z,17.18
2017-03-16T09:25:00.882Z,16.92
2017-03-16T09:26:00.972Z,16.69
2017-03-16T09:27:00.991Z,16.55
2017-03-16T09:28:00.973Z,16.62
2017-03-16T09:29:01.070Z,16.8
2017-03-16T09:30:01.069Z,17.36
2017-03-16T09:31:01.098Z,17.98
2017-03-16T09:32:01.164Z,18.41
2017-03-16T09:33:01.205Z,18.93
2017-03-16T09:34:01.312Z,19.61
2017-03-16T09:35:01.309Z,20.12
2017-03-16T09:36:01.310Z,20.96
2017-03-16T09:37:01.325Z,21.78
2017-03-16T09:38:01.376Z,22.42
2017-03-16T09:39:01.391Z,22.94
2017-03-16T09:40:01.427Z,23.47
2017-03-16T09:41:01.455Z,23.7
2017-03-16T09:42:01.507Z,23.59
2017-03-16T09:43:01.510Z,23.16
2017-03-16T09:44:01.586Z,22.89
2017-03-16T09:45:01.617Z,22.78
2017-03-16T09:46:01.661Z,22.54
2017-03-16T09:47:01.736Z,22.41
2017-03-16T09:48:01.734Z,22.05
2017-03-16T09:49:02.007Z,21.8
2017-03-16T09:50:01.834Z,21.46
2017-03-16T09:51:01.903Z,21.28
2017-03-16T09:52:01.912Z,20.9
2017-03-16T09:53:01.912Z,20.49
2017-03-16T09:54:01.954Z,20.34
2017-03-16T09:55:01.999Z,19.71
2017-03-16T09:56:02.077Z,19.53
2017-03-16T09:57:02.063Z,19.25
2017-03-16T09:58:02.095Z,19.1
2017-03-16T09:59:02.158Z,18.99
2017-03-16T10:00:02.175Z,18.86
2017-03-16T10:01:02.284Z,18.76
2017-03-16T10:02:02.274Z,18.66
2017-03-16T10:03:09.018Z,18.82
2017-03-16T10:04:02.318Z,18.89
2017-03-16T10:05:02.381Z,18.89
2017-03-16T10:06:02.413Z,18.84
2017-03-16T10:07:02.468Z,18.59
2017-03-16T10:08:02.535Z,18.31
2017-03-16T10:09:02.524Z,17.99
2017-03-16T10:10:02.594Z,17.86
2017-03-16T10:11:02.594Z,17.66
2017-03-16T10:12:02.638Z,17.88
2017-03-16T10:13:02.673Z,18.06
2017-03-16T10:14:02.707Z,18.34
2017-03-16T10:15:02.752Z,18.38
2017-03-16T10:16:02.809Z,18.53
2017-03-16T10:17:02.858Z,18.39
2017-03-16T10:18:02.869Z,18.02
2017-03-16T10:19:02.910Z,17.8
2017-03-16T10:20:02.944Z,17.5
2017-03-16T10:21:02.978Z,17.32
2017-03-16T10:22:03.005Z,17.31
2017-03-16T10:23:03.047Z,17.42
2017-03-16T10:24:03.275Z,17.5
2017-03-16T10:25:03.112Z,17.55
2017-03-16T10:26:03.180Z,17.42
2017-03-16T10:27:03.215Z,17.15
2017-03-16T10:28:03.218Z,16.85
2017-03-16T10:29:03.402Z,16.73
2017-03-16T10:30:03.314Z,16.54
2017-03-16T10:31:03.354Z,16.32
2017-03-16T10:32:03.367Z,16.08
2017-03-16T10:33:03.397Z,15.86
2017-03-16T10:34:03.418Z,15.67
2017-03-16T10:35:03.681Z,15.71
2017-03-16T10:36:03.500Z,15.59
2017-03-16T10:37:03.534Z,15.59
2017-03-16T10:38:03.631Z,15.78
2017-03-16T10:39:03.628Z,15.59
2017-03-16T10:40:03.700Z,15.52
2017-03-16T10:41:03.683Z,15.44
2017-03-16T10:42:03.777Z,15.38
2017-03-16T10:43:03.823Z,15.45
2017-03-16T10:44:03.999Z,15.47
2017-03-16T10:45:03.836Z,15.65
2017-03-16T10:46:03.883Z,15.73
2017-03-16T10:47:04.286Z,15.91
2017-03-16T10:48:03.911Z,15.89
2017-03-16T10:49:03.930Z,15.96
2017-03-16T10:50:04.274Z,15.96
2017-03-16T10:51:04.033Z,16.17
2017-03-16T10:52:04.079Z,16.33
2017-03-16T10:53:04.293Z,16.44
2017-03-16T10:54:04.125Z,16.36
2017-03-16T10:55:04.194Z,16.13
2017-03-16T10:56:04.239Z,15.98
2017-03-16T10:57:04.240Z,15.88
2017-03-16T10:58:04.263Z,15.81
2017-03-16T10:59:04.288Z,15.68
2017-03-16T11:00:04.360Z,15.7
2017-03-16T11:01:04.396Z,15.73
2017-03-16T11:02:04.684Z,15.74
2017-03-16T11:03:12.953Z,15.58
2017-03-16T11:04:04.665Z,15.45
2017-03-16T11:05:04.513Z,15.31
2017-03-16T11:06:04.567Z,15.02
2017-03-16T11:07:04.580Z,15.04
2017-03-16T11:08:04.637Z,15.02
2017-03-16T11:09:04.646Z,15.04
2017-03-16T11:10:04.675Z,15.02
2017-03-16T11:11:04.702Z,14.87
2017-03-16T11:12:04.746Z,14.83
2017-03-16T11:13:04.793Z,14.74
2017-03-16T11:14:04.813Z,14.69
2017-03-16T11:15:04.871Z,14.75
2017-03-16T11:16:04.861Z,14.7
2017-03-16T11:17:04.912Z,14.66
2017-03-16T11:18:04.953Z,14.77
2017-03-16T11:19:04.973Z,14.93
2017-03-16T11:20:05.024Z,15.02
2017-03-16T11:21:05.077Z,15.12
2017-03-16T11:22:05.109Z,15.08
2017-03-16T11:23:05.115Z,15.15
2017-03-16T11:24:05.159Z,15.33
2017-03-16T11:25:05.229Z,15.37
2017-03-16T11:26:05.202Z,15.35
2017-03-16T11:27:05.659Z,15.41
2017-03-16T11:28:05.322Z,15.49
2017-03-16T11:29:05.320Z,15.59
2017-03-16T11:30:05.362Z,15.71
2017-03-16T11:31:05.392Z,15.89
2017-03-16T11:32:05.465Z,16.13
2017-03-16T11:33:05.505Z,16.18
2017-03-16T11:34:05.499Z,16.18
2017-03-16T11:35:05.602Z,16.26
2017-03-16T11:36:05.622Z,16.42
2017-03-16T11:37:05.764Z,16.49
2017-03-16T11:38:05.620Z,16.54
2017-03-16T11:39:05.719Z,16.55
2017-03-16T11:40:05.711Z,16.7
2017-03-16T11:41:05.742Z,16.65
2017-03-16T11:42:05.810Z,16.69
2017-03-16T11:43:05.801Z,16.8
2017-03-16T11:44:05.887Z,16.97
2017-03-16T11:45:05.871Z,17.05
2017-03-16T11:46:06.039Z,17.22
2017-03-16T11:47:05.935Z,17.54
2017-03-16T11:48:05.997Z,17.84
2017-03-16T11:49:06.203Z,18.32
2017-03-16T11:50:06.057Z,18.54
2017-03-16T11:51:06.163Z,18.65
2017-03-16T11:52:06.110Z,18.75
2017-03-16T11:53:06.157Z,18.74
2017-03-16T11:54:06.199Z,18.87
2017-03-16T11:55:06.239Z,19.07
2017-03-16T11:56:06.254Z,18.97
2017-03-16T11:57:06.303Z,18.78
2017-03-16T11:58:06.312Z,18.54
2017-03-16T11:59:06.627Z,18.29
2017-03-16T12:00:06.424Z,18.29
2017-03-16T12:01:06.433Z,18.41
2017-03-16T12:02:06.488Z,18.53
2017-03-16T12:03:06.567Z,18.61
2017-03-16T12:04:06.522Z,18.59
2017-03-16T12:05:06.572Z,18.61
2017-03-16T12:06:06.625Z,18.27
2017-03-16T12:07:06.628Z,18.14
2017-03-16T12:08:06.707Z,17.99
2017-03-16T12:09:06.703Z,17.88
2017-03-16T12:10:06.966Z,17.57
2017-03-16T12:11:06.763Z,17.36
2017-03-16T12:12:06.805Z,17.18
2017-03-16T12:13:07.041Z,17.03
2017-03-16T12:14:06.918Z,16.77
2017-03-16T12:15:07.038Z,16.65
2017-03-16T12:16:06.953Z,16.65
2017-03-16T12:17:07.016Z,16.69
2017-03-16T12:18:07.040Z,16.62
2017-03-16T12:19:07.280Z,16.67
2017-03-16T12:20:07.231Z,16.48
2017-03-16T12:21:07.110Z,16.51
2017-03-16T12:22:07.166Z,16.34
2017-03-16T12:23:07.207Z,16.14
2017-03-16T12:24:07.216Z,15.88
2017-03-16T12:25:07.291Z,15.55
2017-03-16T12:26:07.332Z,15.49
2017-03-16T12:27:07.322Z,15.3
2017-03-16T12:28:07.389Z,15.04
2017-03-16T12:29:07.401Z,14.79
2017-03-16T12:30:07.654Z,14.74
2017-03-16T12:31:07.465Z,14.83
2017-03-16T12:32:07.542Z,14.7
2017-03-16T12:33:07.550Z,14.75
2017-03-16T12:34:07.792Z,14.94
2017-03-16T12:35:07.637Z,14.95
2017-03-16T12:36:07.638Z,14.97
2017-03-16T12:37:07.723Z,15.05
2017-03-16T12:38:07.710Z,15.16
2017-03-16T12:39:07.727Z,15.22
2017-03-16T12:40:07.777Z,15.27
2017-03-16T12:41:07.807Z,15.38
2017-03-16T12:42:07.848Z,15.37
2017-03-16T12:43:07.916Z,15.45
2017-03-16T12:44:07.917Z,15.43
2017-03-16T12:45:07.945Z,15.44
2017-03-16T12:46:07.967Z,15.31
2017-03-16T12:47:08.018Z,15.2
2017-03-16T12:48:08.053Z,15.19
2017-03-16T12:49:08.089Z,15.31
2017-03-16T12:50:08.128Z,15.37
2017-03-16T12:51:08.176Z,15.45
2017-03-16T12:52:08.181Z,15.44
2017-03-16T12:53:08.204Z,15.43
2017-03-16T12:54:08.280Z,15.37
2017-03-16T12:55:08.301Z,15.34
2017-03-16T12:56:08.321Z,15.41
2017-03-16T12:57:08.350Z,15.47
2017-03-16T12:58:08.436Z,15.45
2017-03-16T12:59:08.418Z,15.49
2017-03-16T13:00:08.515Z,15.4
2017-03-16T13:01:08.684Z,15.38
2017-03-16T13:02:08.525Z,15.43
2017-03-16T13:03:08.561Z,15.49
2017-03-16T13:04:08.818Z,15.37
2017-03-16T13:05:08.631Z,15.37
2017-03-16T13:06:08.725Z,15.38
2017-03-16T13:07:08.738Z,15.37
2017-03-16T13:08:08.914Z,15.45
2017-03-16T13:09:08.807Z,15.53
2017-03-16T13:10:08.802Z,15.41